sensor_id;sensor_type;location;lat;lon;timestamp;noise_LAeq;noise_LA_min;noise_LA_max;noise_LA01;noise_LA95
49215;Laerm;45943;53.148;8.204;2022-07-04T18:43:27;44.92;40.83;59.82;;
49215;Laerm;45943;53.148;8.204;2022-07-04T18:45:58;44.96;41.22;59.34;;
49215;Laerm;45943;53.148;8.204;2022-07-04T18:48:25;44.32;41.13;55.27;;
49215;Laerm;45943;53.148;8.204;2022-07-04T18:50:52;44.05;40.73;57.65;;
49215;Laerm;45943;53.148;8.204;2022-07-04T18:53:19;44.37;40.41;59.57;;
49215;Laerm;45943;53.148;8.204;2022-07-04T18:55:45;45.09;40.73;67.42;;
49215;Laerm;45943;53.148;8.204;2022-07-04T18:58:12;43.13;40.06;51.55;;
49215;Laerm;45943;53.148;8.204;2022-07-04T19:00:38;44.13;40.52;54.51;;
49215;Laerm;45943;53.148;8.204;2022-07-04T19:03:05;44.09;40.18;57.59;;
49215;Laerm;45943;53.148;8.204;2022-07-04T19:05:32;43.08;40.73;51.95;;
49215;Laerm;45943;53.148;8.204;2022-07-04T19:07:59;43.24;39.27;53.01;;
49215;Laerm;45943;53.148;8.204;2022-07-04T19:10:27;57.15;40.18;72.62;;
49215;Laerm;45943;53.148;8.204;2022-07-04T19:12:53;44.47;40.63;53.83;;
49215;Laerm;45943;53.148;8.204;2022-07-04T19:15:19;43.27;40.30;49.51;;
49215;Laerm;45943;53.148;8.204;2022-07-04T19:17:45;44.45;39.68;57.51;;
49215;Laerm;45943;53.148;8.204;2022-07-04T19:20:12;60.00;39.94;74.44;;
49215;Laerm;45943;53.148;8.204;2022-07-04T19:22:38;46.53;39.68;65.24;;
49215;Laerm;45943;53.148;8.204;2022-07-04T19:25:06;43.87;39.41;58.58;;
49215;Laerm;45943;53.148;8.204;2022-07-04T19:27:32;45.18;38.81;63.19;;
49215;Laerm;45943;53.148;8.204;2022-07-04T19:29:59;45.86;39.55;65.16;;
49215;Laerm;45943;53.148;8.204;2022-07-04T19:32:29;44.20;40.06;58.10;;
49215;Laerm;45943;53.148;8.204;2022-07-04T19:34:56;43.02;38.48;52.45;;
49215;Laerm;45943;53.148;8.204;2022-07-04T19:37:22;42.92;38.81;57.83;;
49215;Laerm;45943;53.148;8.204;2022-07-04T19:39:48;59.64;38.97;74.66;;
49215;Laerm;45943;53.148;8.204;2022-07-04T19:42:15;45.85;39.12;66.83;;
49215;Laerm;45943;53.148;8.204;2022-07-04T19:44:45;43.18;40.18;49.84;;
49215;Laerm;45943;53.148;8.204;2022-07-04T19:47:11;43.21;39.12;59.01;;
49215;Laerm;45943;53.148;8.204;2022-07-04T19:49:39;43.01;38.48;56.95;;
49215;Laerm;45943;53.148;8.204;2022-07-04T19:52:06;47.07;38.81;69.78;;
49215;Laerm;45943;53.148;8.204;2022-07-04T19:54:50;42.66;38.30;54.96;;
49215;Laerm;45943;53.148;8.204;2022-07-04T19:57:16;44.06;39.27;59.36;;
49215;Laerm;45943;53.148;8.204;2022-07-04T19:59:42;71.71;39.81;89.10;;
49215;Laerm;45943;53.148;8.204;2022-07-04T20:02:08;44.64;38.12;68.83;;
49215;Laerm;45943;53.148;8.204;2022-07-04T20:04:34;47.32;38.65;65.45;;
49215;Laerm;45943;53.148;8.204;2022-07-04T20:07:00;69.03;40.52;82.39;;
49215;Laerm;45943;53.148;8.204;2022-07-04T20:09:27;42.47;38.30;51.27;;
49215;Laerm;45943;53.148;8.204;2022-07-04T20:11:53;42.63;39.12;53.81;;
49215;Laerm;45943;53.148;8.204;2022-07-04T20:14:20;41.53;38.12;52.24;;
49215;Laerm;45943;53.148;8.204;2022-07-04T20:16:46;42.30;38.30;58.26;;
49215;Laerm;45943;53.148;8.204;2022-07-04T20:19:13;42.84;37.92;50.82;;
49215;Laerm;45943;53.148;8.204;2022-07-04T20:21:39;44.15;39.41;64.91;;
49215;Laerm;45943;53.148;8.204;2022-07-04T20:24:06;54.84;38.12;71.77;;
49215;Laerm;45943;53.148;8.204;2022-07-04T20:26:32;41.13;37.72;53.19;;
49215;Laerm;45943;53.148;8.204;2022-07-04T20:28:59;40.51;37.51;46.35;;
49215;Laerm;45943;53.148;8.204;2022-07-04T20:31:25;41.34;37.72;46.40;;
49215;Laerm;45943;53.148;8.204;2022-07-04T20:33:51;45.06;37.92;66.15;;
49215;Laerm;45943;53.148;8.204;2022-07-04T20:36:17;40.94;37.29;46.05;;
49215;Laerm;45943;53.148;8.204;2022-07-04T20:38:43;40.90;37.51;44.75;;
49215;Laerm;45943;53.148;8.204;2022-07-04T20:41:09;58.37;37.51;73.66;;
49215;Laerm;45943;53.148;8.204;2022-07-04T20:43:35;40.54;36.54;48.97;;
49215;Laerm;45943;53.148;8.204;2022-07-04T20:46:02;41.03;37.51;54.89;;
49215;Laerm;45943;53.148;8.204;2022-07-04T20:48:27;41.35;38.13;46.46;;
49215;Laerm;45943;53.148;8.204;2022-07-04T20:50:53;42.60;38.30;48.58;;
49215;Laerm;45943;53.148;8.204;2022-07-04T20:53:19;44.65;37.72;65.60;;
49215;Laerm;45943;53.148;8.204;2022-07-04T20:55:45;41.19;37.92;46.20;;
49215;Laerm;45943;53.148;8.204;2022-07-04T20:58:11;42.19;38.48;46.05;;
49215;Laerm;45943;53.148;8.204;2022-07-04T21:00:38;41.68;38.12;45.11;;
49215;Laerm;45943;53.148;8.204;2022-07-04T21:03:04;41.70;38.30;57.08;;
49215;Laerm;45943;53.148;8.204;2022-07-04T21:05:30;41.52;38.65;44.99;;
49215;Laerm;45943;53.148;8.204;2022-07-04T21:07:56;44.93;39.68;51.89;;
49215;Laerm;45943;53.148;8.204;2022-07-04T21:10:23;41.08;38.48;45.39;;
49215;Laerm;45943;53.148;8.204;2022-07-04T21:12:51;41.38;38.30;44.99;;
49215;Laerm;45943;53.148;8.204;2022-07-04T21:15:18;41.68;37.72;46.11;;
49215;Laerm;45943;53.148;8.204;2022-07-04T21:17:44;41.93;38.30;47.31;;
49215;Laerm;45943;53.148;8.204;2022-07-04T21:20:14;42.47;39.27;46.73;;
49215;Laerm;45943;53.148;8.204;2022-07-04T21:22:40;42.82;38.97;51.39;;
49215;Laerm;45943;53.148;8.204;2022-07-04T21:25:06;42.73;39.55;50.27;;
49215;Laerm;45943;53.148;8.204;2022-07-04T21:27:32;42.59;39.12;51.13;;
49215;Laerm;45943;53.148;8.204;2022-07-04T21:29:58;42.04;38.30;48.58;;
49215;Laerm;45943;53.148;8.204;2022-07-04T21:32:24;42.16;38.97;46.43;;
49215;Laerm;45943;53.148;8.204;2022-07-04T21:34:50;41.83;38.12;44.71;;
49215;Laerm;45943;53.148;8.204;2022-07-04T21:37:16;41.35;37.92;45.25;;
49215;Laerm;45943;53.148;8.204;2022-07-04T21:39:42;59.69;39.12;74.18;;
49215;Laerm;45943;53.148;8.204;2022-07-04T21:42:08;43.65;39.12;46.65;;
49215;Laerm;45943;53.148;8.204;2022-07-04T21:44:34;42.44;39.27;50.93;;
49215;Laerm;45943;53.148;8.204;2022-07-04T21:47:00;41.05;36.80;45.29;;
49215;Laerm;45943;53.148;8.204;2022-07-04T21:49:26;41.80;37.29;64.39;;
49215;Laerm;45943;53.148;8.204;2022-07-04T21:51:52;59.86;37.51;75.56;;
49215;Laerm;45943;53.148;8.204;2022-07-04T21:54:18;40.97;38.12;44.14;;
49215;Laerm;45943;53.148;8.204;2022-07-04T21:56:44;40.73;35.96;44.40;;
49215;Laerm;45943;53.148;8.204;2022-07-04T21:59:10;41.16;37.92;46.26;;
49215;Laerm;45943;53.148;8.204;2022-07-04T22:01:36;40.74;37.05;45.33;;
49215;Laerm;45943;53.148;8.204;2022-07-04T22:04:02;41.04;37.72;45.83;;
49215;Laerm;45943;53.148;8.204;2022-07-04T22:06:28;41.18;37.92;44.79;;
49215;Laerm;45943;53.148;8.204;2022-07-04T22:08:54;40.96;37.72;46.62;;
49215;Laerm;45943;53.148;8.204;2022-07-04T22:11:20;41.77;37.92;51.10;;
49215;Laerm;45943;53.148;8.204;2022-07-04T22:13:46;40.71;36.80;44.87;;
49215;Laerm;45943;53.148;8.204;2022-07-04T22:16:13;40.77;36.80;45.43;;
49215;Laerm;45943;53.148;8.204;2022-07-04T22:18:39;40.88;37.29;49.66;;
49215;Laerm;45943;53.148;8.204;2022-07-04T22:21:06;44.24;38.97;48.48;;
49215;Laerm;45943;53.148;8.204;2022-07-04T22:23:32;42.98;39.27;56.39;;
49215;Laerm;45943;53.148;8.204;2022-07-04T22:25:58;41.88;38.48;46.98;;
49215;Laerm;45943;53.148;8.204;2022-07-04T22:28:24;42.35;38.81;49.55;;
49215;Laerm;45943;53.148;8.204;2022-07-04T22:30:50;41.36;38.48;43.94;;
49215;Laerm;45943;53.148;8.204;2022-07-04T22:33:16;41.37;37.92;45.07;;
49215;Laerm;45943;53.148;8.204;2022-07-04T22:35:42;42.57;38.12;59.10;;
49215;Laerm;45943;53.148;8.204;2022-07-04T22:38:08;41.96;38.65;52.47;;
49215;Laerm;45943;53.148;8.204;2022-07-04T22:40:35;48.22;38.65;65.68;;
49215;Laerm;45943;53.148;8.204;2022-07-04T22:43:01;41.80;38.97;46.80;;
49215;Laerm;45943;53.148;8.204;2022-07-04T22:45:27;42.54;39.27;48.94;;
49215;Laerm;45943;53.148;8.204;2022-07-04T22:47:53;42.84;39.81;46.78;;
49215;Laerm;45943;53.148;8.204;2022-07-04T22:50:19;41.42;36.54;45.03;;
49215;Laerm;45943;53.148;8.204;2022-07-04T22:52:45;41.27;37.51;44.54;;
49215;Laerm;45943;53.148;8.204;2022-07-04T22:55:11;42.83;38.30;60.46;;
49215;Laerm;45943;53.148;8.204;2022-07-04T22:57:38;43.13;39.81;49.96;;
49215;Laerm;45943;53.148;8.204;2022-07-04T23:00:13;42.94;39.55;45.83;;
49215;Laerm;45943;53.148;8.204;2022-07-04T23:02:40;43.71;39.81;51.99;;
49215;Laerm;45943;53.148;8.204;2022-07-04T23:05:09;42.92;39.41;47.70;;
49215;Laerm;45943;53.148;8.204;2022-07-04T23:07:36;43.27;39.41;52.00;;
49215;Laerm;45943;53.148;8.204;2022-07-04T23:10:03;42.69;39.34;46.67;;
49215;Laerm;45943;53.148;8.204;2022-07-04T23:12:30;42.56;38.30;46.73;;
49215;Laerm;45943;53.148;8.204;2022-07-04T23:14:56;42.89;39.68;46.83;;
49215;Laerm;45943;53.148;8.204;2022-07-04T23:17:22;42.65;39.12;45.57;;
49215;Laerm;45943;53.148;8.204;2022-07-04T23:19:48;44.12;40.73;48.21;;
49215;Laerm;45943;53.148;8.204;2022-07-04T23:22:14;69.47;40.30;82.08;;
49215;Laerm;45943;53.148;8.204;2022-07-04T23:24:40;42.69;39.12;47.17;;
49215;Laerm;45943;53.148;8.204;2022-07-04T23:27:06;41.26;37.72;47.64;;
49215;Laerm;45943;53.148;8.204;2022-07-04T23:29:32;41.81;38.12;45.22;;
49215;Laerm;45943;53.148;8.204;2022-07-04T23:31:58;42.45;39.12;46.23;;
49215;Laerm;45943;53.148;8.204;2022-07-04T23:34:24;43.26;40.06;46.88;;
49215;Laerm;45943;53.148;8.204;2022-07-04T23:36:50;42.56;39.12;46.46;;
49215;Laerm;45943;53.148;8.204;2022-07-04T23:39:16;41.33;37.29;44.41;;
49215;Laerm;45943;53.148;8.204;2022-07-04T23:41:42;41.50;38.12;44.28;;
49215;Laerm;45943;53.148;8.204;2022-07-04T23:44:09;42.06;38.48;46.02;;
49215;Laerm;45943;53.148;8.204;2022-07-04T23:46:34;42.38;39.12;45.11;;
49215;Laerm;45943;53.148;8.204;2022-07-04T23:49:01;41.42;37.72;45.54;;
49215;Laerm;45943;53.148;8.204;2022-07-04T23:51:27;42.20;38.65;47.60;;
49215;Laerm;45943;53.148;8.204;2022-07-04T23:53:53;41.85;38.12;46.37;;
49215;Laerm;45943;53.148;8.204;2022-07-04T23:56:19;41.06;37.29;44.46;;
49215;Laerm;45943;53.148;8.204;2022-07-04T23:58:45;44.59;38.81;49.62;;
